Time;durP1;ratioP1;P1;durP2;ratioP2;P2;SDS_P1;SDS_P2;PMS_P1;PMS_P2;Temp;Humidity;BMP_temperature;BMP_pressure;BME280_temperature;BME280_humidity;BME280_pressure;Samples;Min_cycle;Max_cycle;Signal;HPM_P1;HPM_P2
2022/10/02 00:01:36;;;;;;;1.58;1.25;;;23.40;59.30;;;;;;7681271;22;80286;-60
2022/10/02 00:04:37;;;;;;;1.40;1.20;;;23.40;59.40;;;;;;7683374;22;80213;-60
2022/10/02 00:07:37;;;;;;;2.17;1.50;;;23.40;59.20;;;;;;7683195;22;80887;-60
2022/10/02 00:10:38;;;;;;;2.22;1.42;;;23.40;59.30;;;;;;7683557;22;82269;-60
2022/10/02 00:13:38;;;;;;;1.15;1.05;;;23.40;59.30;;;;;;7682926;22;81716;-60
2022/10/02 00:16:39;;;;;;;1.52;1.42;;;23.40;59.30;;;;;;7683336;22;80501;-61
2022/10/02 00:19:39;;;;;;;1.48;1.38;;;23.40;59.20;;;;;;7683159;22;81566;-60
2022/10/02 00:22:40;;;;;;;1.20;1.10;;;23.40;59.30;;;;;;7649736;22;80074;-61
2022/10/02 00:25:40;;;;;;;1.38;1.20;;;23.40;59.20;;;;;;7655863;22;82003;-61
2022/10/02 00:28:41;;;;;;;1.05;0.98;;;23.40;59.20;;;;;;7681643;22;80680;-59
2022/10/02 00:31:43;;;;;;;2.05;1.40;;;23.40;59.20;;;;;;7682534;22;80160;-60
2022/10/02 00:34:44;;;;;;;1.88;1.27;;;23.40;59.20;;;;;;7679444;22;80386;-60
2022/10/02 00:37:44;;;;;;;1.80;1.17;;;23.40;59.20;;;;;;7679975;22;81435;-60
2022/10/02 00:40:45;;;;;;;1.08;0.98;;;23.40;59.20;;;;;;7679858;22;82159;-60
2022/10/02 00:43:45;;;;;;;1.48;1.38;;;23.40;59.10;;;;;;7680317;22;80498;-60
2022/10/02 00:46:46;;;;;;;1.88;1.20;;;23.40;59.20;;;;;;7681771;22;80599;-61
2022/10/02 00:49:46;;;;;;;2.05;1.40;;;23.30;59.00;;;;;;7680462;22;79823;-60
2022/10/02 00:52:47;;;;;;;1.33;1.10;;;23.40;59.00;;;;;;7679791;22;80253;-60
2022/10/02 00:55:47;;;;;;;1.55;1.23;;;23.40;59.20;;;;;;7680584;22;80418;-61
2022/10/02 00:58:48;;;;;;;1.73;1.30;;;23.40;59.20;;;;;;7682179;22;80356;-60
2022/10/02 01:01:48;;;;;;;1.15;1.05;;;23.40;59.20;;;;;;7680602;22;80384;-61
2022/10/02 01:04:49;;;;;;;1.55;1.45;;;23.40;59.40;;;;;;7680378;22;80366;-60
2022/10/02 01:07:49;;;;;;;2.05;1.13;;;23.30;59.10;;;;;;7677761;22;81162;-60
2022/10/02 01:10:50;;;;;;;1.20;1.10;;;23.40;59.20;;;;;;7681454;22;80483;-61
2022/10/02 01:13:50;;;;;;;3.10;1.20;;;23.40;59.20;;;;;;7676712;22;82091;-61
2022/10/02 01:16:50;;;;;;;3.90;1.17;;;23.40;59.20;;;;;;7678459;22;79998;-60
2022/10/02 01:19:51;;;;;;;1.65;1.33;;;23.40;59.10;;;;;;7678066;22;81062;-60
2022/10/02 01:22:51;;;;;;;1.80;1.20;;;23.40;59.20;;;;;;7680306;22;80271;-61
2022/10/02 01:25:52;;;;;;;1.17;1.10;;;23.40;59.30;;;;;;7679230;22;81407;-61
2022/10/02 01:28:52;;;;;;;1.20;1.10;;;23.40;59.40;;;;;;7680559;22;80452;-60
2022/10/02 01:31:53;;;;;;;1.67;1.38;;;23.40;59.40;;;;;;7677895;22;80294;-61
2022/10/02 01:34:53;;;;;;;1.10;1.02;;;23.40;59.30;;;;;;7682966;22;81009;-60
2022/10/02 01:37:54;;;;;;;1.27;0.90;;;23.40;59.50;;;;;;7676655;22;80232;-60
2022/10/02 01:40:54;;;;;;;1.23;1.13;;;23.30;59.40;;;;;;7676570;22;79936;-61
2022/10/02 01:43:55;;;;;;;1.65;1.33;;;23.30;59.30;;;;;;7653900;22;81868;-61
2022/10/02 01:46:55;;;;;;;2.35;1.33;;;23.40;59.40;;;;;;7677271;22;81831;-61
2022/10/02 01:49:56;;;;;;;1.35;1.25;;;23.40;59.40;;;;;;7681340;22;80267;-58
2022/10/02 01:52:56;;;;;;;1.05;1.00;;;23.40;59.30;;;;;;7678768;22;81763;-57
2022/10/02 01:55:59;;;;;;;1.10;1.00;;;23.40;59.40;;;;;;7680228;22;80376;-57
2022/10/02 01:59:00;;;;;;;1.23;1.10;;;23.40;59.40;;;;;;7679078;22;81730;-58
2022/10/02 02:02:00;;;;;;;1.13;1.00;;;23.40;59.40;;;;;;7681988;22;81270;-57
2022/10/02 02:05:00;;;;;;;1.48;1.10;;;23.40;59.40;;;;;;7680629;22;81210;-57
2022/10/02 02:08:01;;;;;;;0.93;0.93;;;23.40;59.20;;;;;;7679971;22;80792;-57
2022/10/02 02:11:01;;;;;;;1.42;1.00;;;23.40;59.30;;;;;;7677364;22;80236;-56
2022/10/02 02:14:02;;;;;;;1.10;1.00;;;23.40;59.30;;;;;;7680463;22;80772;-56
2022/10/02 02:17:03;;;;;;;0.85;0.85;;;23.40;59.30;;;;;;7652277;22;80562;-57
2022/10/02 02:20:03;;;;;;;1.00;1.00;;;23.40;59.40;;;;;;7678588;22;80226;-58
2022/10/02 02:23:04;;;;;;;1.48;1.00;;;23.40;59.20;;;;;;7678424;22;81010;-57
2022/10/02 02:26:04;;;;;;;1.10;1.00;;;23.40;59.40;;;;;;7680148;22;80361;-58
2022/10/02 02:29:05;;;;;;;1.45;0.93;;;23.40;59.50;;;;;;7681301;22;80328;-56
2022/10/02 02:32:05;;;;;;;1.20;1.08;;;23.40;59.20;;;;;;7675513;22;80196;-56
2022/10/02 02:35:06;;;;;;;1.10;1.00;;;23.40;59.40;;;;;;7679652;22;80421;-56
2022/10/02 02:38:07;;;;;;;1.20;1.10;;;23.40;59.50;;;;;;7679417;22;80851;-58
2022/10/02 02:41:10;;;;;;;1.02;0.95;;;23.40;59.40;;;;;;7679773;22;79899;-58
2022/10/02 02:44:11;;;;;;;1.00;0.90;;;23.40;59.40;;;;;;7678433;22;80506;-56
2022/10/02 02:47:11;;;;;;;0.75;0.75;;;23.40;59.60;;;;;;7678273;22;80419;-57
2022/10/02 02:50:12;;;;;;;0.80;0.80;;;23.40;59.50;;;;;;7679479;22;83586;-56
2022/10/02 02:53:12;;;;;;;1.02;1.00;;;23.40;59.50;;;;;;7678669;22;80277;-57
2022/10/02 02:56:13;;;;;;;1.08;1.02;;;23.40;59.40;;;;;;7678540;22;80361;-56
2022/10/02 02:59:13;;;;;;;1.25;0.98;;;23.40;59.40;;;;;;7679316;22;80355;-56
2022/10/02 03:02:14;;;;;;;1.35;1.20;;;23.40;59.50;;;;;;7650160;22;83072;-57
2022/10/02 03:05:14;;;;;;;0.80;0.80;;;23.40;59.60;;;;;;7678178;22;80320;-57
2022/10/02 03:08:15;;;;;;;1.80;1.10;;;23.40;59.60;;;;;;7679009;22;80360;-57
2022/10/02 03:11:15;;;;;;;1.08;1.05;;;23.30;59.50;;;;;;7677716;22;81056;-57
2022/10/02 03:14:16;;;;;;;1.85;1.00;;;23.40;59.50;;;;;;7679993;22;80268;-57
2022/10/02 03:17:16;;;;;;;1.25;1.20;;;23.30;59.60;;;;;;7678999;22;80135;-56
2022/10/02 03:20:17;;;;;;;1.65;1.20;;;23.30;59.30;;;;;;7678604;22;80954;-58
2022/10/02 03:23:17;;;;;;;0.90;0.90;;;23.40;59.40;;;;;;7679818;22;80295;-57
2022/10/02 03:26:18;;;;;;;0.85;0.82;;;23.40;59.50;;;;;;7678953;22;80629;-57
2022/10/02 03:29:18;;;;;;;0.90;0.90;;;23.40;59.70;;;;;;7678350;22;80685;-55
2022/10/02 03:32:20;;;;;;;1.15;1.08;;;23.40;60.00;;;;;;7676731;22;80670;-57
2022/10/02 03:35:20;;;;;;;0.88;0.88;;;23.40;59.50;;;;;;7678938;22;80887;-57
2022/10/02 03:38:20;;;;;;;0.90;0.90;;;23.40;59.20;;;;;;7679601;22;80557;-56
2022/10/02 03:41:21;;;;;;;0.80;0.80;;;23.50;59.00;;;;;;7680692;22;80640;-56
2022/10/02 03:44:21;;;;;;;2.38;1.00;;;23.40;58.90;;;;;;7679020;22;80247;-56
2022/10/02 03:47:22;;;;;;;1.10;0.98;;;23.50;58.70;;;;;;7676885;22;80808;-57
2022/10/02 03:50:22;;;;;;;0.88;0.88;;;23.40;58.70;;;;;;7675031;22;80505;-56
2022/10/02 03:53:23;;;;;;;0.90;0.90;;;23.50;58.60;;;;;;7677736;22;80714;-53
2022/10/02 03:56:23;;;;;;;1.33;1.23;;;23.50;58.30;;;;;;7677470;22;81858;-56
2022/10/02 03:59:24;;;;;;;1.88;0.95;;;23.50;58.20;;;;;;7675863;22;80116;-55
2022/10/02 04:02:24;;;;;;;1.25;1.10;;;23.50;58.20;;;;;;7677401;22;80510;-55
2022/10/02 04:05:25;;;;;;;1.10;1.00;;;23.50;58.10;;;;;;7681772;22;80560;-55
2022/10/02 04:08:25;;;;;;;0.93;0.85;;;23.50;58.00;;;;;;7681348;22;80869;-58
2022/10/02 04:11:26;;;;;;;1.08;1.08;;;23.60;58.10;;;;;;7680127;22;80224;-59
2022/10/02 04:14:26;;;;;;;1.20;1.10;;;23.60;58.10;;;;;;7680807;22;80247;-58
2022/10/02 04:17:27;;;;;;;1.02;0.80;;;23.50;58.00;;;;;;7681808;22;80392;-48
2022/10/02 04:20:30;;;;;;;1.15;1.05;;;23.60;58.10;;;;;;7681787;22;80358;-48
2022/10/02 04:23:30;;;;;;;2.08;1.38;;;23.60;57.90;;;;;;7679659;22;79890;-50
2022/10/02 04:26:31;;;;;;;1.73;1.30;;;23.60;57.90;;;;;;7676988;22;80959;-49
2022/10/02 04:29:31;;;;;;;0.98;0.85;;;23.60;57.90;;;;;;7679784;22;81124;-46
2022/10/02 04:32:32;;;;;;;1.20;1.10;;;23.60;58.30;;;;;;7681045;22;81619;-47
2022/10/02 04:35:32;;;;;;;12.10;1.52;;;23.60;58.30;;;;;;7652256;22;80435;-49
2022/10/02 04:38:33;;;;;;;1.15;1.02;;;23.70;58.60;;;;;;7681606;22;81612;-49
2022/10/02 04:41:33;;;;;;;1.33;1.10;;;23.70;59.50;;;;;;7680625;22;80557;-48
2022/10/02 04:44:34;;;;;;;1.67;1.30;;;23.70;58.70;;;;;;7680141;22;81179;-47
2022/10/02 04:47:35;;;;;;;1.10;1.00;;;23.70;59.00;;;;;;7673366;22;80979;-47
2022/10/02 04:50:36;;;;;;;1.67;1.08;;;23.80;59.10;;;;;;7674910;22;79857;-48
2022/10/02 04:53:36;;;;;;;8.80;1.60;;;23.80;58.70;;;;;;7676692;22;80572;-51
2022/10/02 04:56:36;;;;;;;2.35;1.05;;;23.80;58.70;;;;;;7666455;22;82121;-51
2022/10/02 04:59:37;;;;;;;1.30;1.10;;;23.90;58.60;;;;;;7675112;22;80657;-56
2022/10/02 05:02:37;;;;;;;2.65;1.30;;;23.80;58.80;;;;;;7678180;22;80272;-48
2022/10/02 05:05:38;;;;;;;1.58;1.48;;;23.80;58.70;;;;;;7679371;22;80478;-51
2022/10/02 05:08:38;;;;;;;1.67;1.30;;;23.80;59.00;;;;;;7680205;22;80656;-49
2022/10/02 05:11:39;;;;;;;5.45;1.30;;;23.80;59.10;;;;;;7680317;22;80324;-48
2022/10/02 05:14:39;;;;;;;143.05;54.85;;;23.80;59.00;;;;;;7679753;22;81140;-52
2022/10/02 05:17:40;;;;;;;443.48;183.13;;;23.80;58.90;;;;;;7673750;22;82988;-49
2022/10/02 05:20:40;;;;;;;537.55;224.95;;;23.80;58.90;;;;;;7672512;22;85866;-52
2022/10/02 05:23:41;;;;;;;592.25;262.90;;;23.80;58.80;;;;;;7664240;22;86434;-52
2022/10/02 05:26:41;;;;;;;626.13;285.00;;;23.80;59.00;;;;;;7671979;22;85881;-49
2022/10/02 05:29:42;;;;;;;724.78;338.77;;;23.80;59.10;;;;;;7671748;22;85624;-57
2022/10/02 05:32:42;;;;;;;633.75;281.10;;;23.80;59.20;;;;;;7671466;22;86146;-58
2022/10/02 05:35:43;;;;;;;575.25;241.52;;;23.80;59.20;;;;;;7672915;22;85961;-59
2022/10/02 05:38:44;;;;;;;529.13;221.15;;;23.80;59.30;;;;;;7671355;22;85202;-58
2022/10/02 05:41:44;;;;;;;518.42;210.77;;;23.80;59.20;;;;;;7645057;22;88009;-59
2022/10/02 05:44:45;;;;;;;476.17;197.23;;;23.80;59.30;;;;;;7672525;22;85476;-60
2022/10/02 05:47:45;;;;;;;421.70;167.80;;;23.80;59.10;;;;;;7670600;22;87368;-50
2022/10/02 05:50:46;;;;;;;405.20;154.45;;;23.80;58.70;;;;;;7668867;22;85716;-50
2022/10/02 05:53:47;;;;;;;372.80;140.63;;;23.80;59.00;;;;;;7670205;22;85713;-54
2022/10/02 05:56:47;;;;;;;341.60;126.50;;;23.80;59.10;;;;;;7665348;22;85775;-52
2022/10/02 05:59:48;;;;;;;309.00;119.03;;;23.80;59.40;;;;;;7623645;22;86316;-49
2022/10/02 06:02:48;;;;;;;314.23;112.72;;;23.80;59.60;;;;;;7657164;22;85445;-49
2022/10/02 06:05:51;;;;;;;250.88;98.03;;;23.90;59.80;;;;;;7664048;22;85928;-47
2022/10/02 06:08:52;;;;;;;239.35;92.28;;;23.90;60.00;;;;;;7673457;22;85416;-50
2022/10/02 06:11:52;;;;;;;240.38;91.03;;;23.80;60.30;;;;;;7670751;22;83506;-48
2022/10/02 06:14:53;;;;;;;207.57;87.80;;;23.90;60.40;;;;;;7674834;22;83396;-47
2022/10/02 06:17:53;;;;;;;207.65;76.43;;;23.90;60.60;;;;;;7668775;22;83087;-48
2022/10/02 06:20:54;;;;;;;199.57;73.90;;;23.80;60.80;;;;;;7669376;22;82925;-47
2022/10/02 06:23:54;;;;;;;175.27;69.68;;;23.90;60.90;;;;;;7669994;22;83113;-58
2022/10/02 06:26:55;;;;;;;160.90;64.55;;;23.90;60.70;;;;;;7670101;22;83562;-59
2022/10/02 06:29:55;;;;;;;148.68;61.38;;;23.90;60.90;;;;;;7668726;22;84009;-57
2022/10/02 06:32:56;;;;;;;149.98;58.67;;;23.80;60.90;;;;;;7670806;22;83632;-58
2022/10/02 06:35:56;;;;;;;134.27;55.22;;;23.90;60.90;;;;;;7669877;22;82932;-58
2022/10/02 06:38:57;;;;;;;133.50;52.47;;;23.90;60.80;;;;;;7670542;22;83065;-58
2022/10/02 06:41:57;;;;;;;129.32;53.53;;;23.90;60.70;;;;;;7676115;22;83062;-59
2022/10/02 06:44:58;;;;;;;122.85;48.97;;;24.00;60.60;;;;;;7674242;22;83704;-60
2022/10/02 06:47:58;;;;;;;109.13;46.03;;;24.00;60.50;;;;;;7671555;22;83302;-57
2022/10/02 06:50:59;;;;;;;109.32;43.10;;;24.00;60.00;;;;;;7669124;22;82762;-58
2022/10/02 06:54:00;;;;;;;88.18;33.58;;;24.00;59.70;;;;;;7669563;22;83274;-60
2022/10/02 06:57:00;;;;;;;89.03;33.88;;;24.00;58.00;;;;;;7668981;22;84310;-59
2022/10/02 07:00:01;;;;;;;80.22;28.80;;;24.00;57.80;;;;;;7670008;22;82901;-57
2022/10/02 07:03:01;;;;;;;56.00;21.80;;;23.90;57.40;;;;;;7668285;22;83123;-58
2022/10/02 07:06:02;;;;;;;45.38;16.77;;;23.90;56.70;;;;;;7669801;22;83156;-58
2022/10/02 07:09:02;;;;;;;36.45;13.40;;;23.80;55.70;;;;;;7664337;22;83765;-62
2022/10/02 07:12:03;;;;;;;33.95;11.40;;;23.70;55.60;;;;;;7661096;22;83603;-61
2022/10/02 07:15:04;;;;;;;19.48;8.95;;;23.70;55.10;;;;;;7671120;22;83324;-66
2022/10/02 07:18:04;;;;;;;17.27;6.85;;;23.60;55.40;;;;;;7676114;22;83223;-67
2022/10/02 07:21:04;;;;;;;17.27;6.30;;;23.50;54.30;;;;;;7660522;22;81047;-70
2022/10/02 07:24:06;;;;;;;8.60;4.47;;;23.40;54.10;;;;;;7664584;22;80941;-68
2022/10/02 07:27:07;;;;;;;8.00;4.70;;;23.30;54.00;;;;;;7673468;22;87500;-71
2022/10/02 07:30:08;;;;;;;10.35;4.65;;;23.20;53.80;;;;;;7666509;22;81819;-69
2022/10/02 07:33:08;;;;;;;11.00;4.63;;;23.20;54.30;;;;;;7667970;22;80400;-59
2022/10/02 07:36:09;;;;;;;10.13;3.88;;;23.20;54.00;;;;;;7654006;22;80669;-60
2022/10/02 07:39:10;;;;;;;10.20;3.88;;;23.20;55.00;;;;;;7656791;22;81473;-59
2022/10/02 07:42:10;;;;;;;7.88;3.85;;;23.30;55.00;;;;;;7665601;22;80580;-58
2022/10/02 07:45:11;;;;;;;10.15;3.95;;;23.30;55.00;;;;;;7665179;22;80550;-59
2022/10/02 07:48:11;;;;;;;6.05;3.47;;;23.30;55.00;;;;;;7660963;22;80567;-60
2022/10/02 07:54:31;;;;;;;4.18;2.38;;;23.50;54.60;;;;;;7658670;22;80792;-59
2022/10/02 07:57:31;;;;;;;4.63;2.63;;;23.50;54.30;;;;;;7658081;22;81373;-60
2022/10/02 08:00:32;;;;;;;5.57;2.78;;;23.50;54.40;;;;;;7660429;22;80942;-60
2022/10/02 08:03:32;;;;;;;8.88;2.75;;;23.50;54.50;;;;;;7673709;22;80223;-66
2022/10/02 08:06:33;;;;;;;5.53;2.50;;;23.60;53.40;;;;;;7676608;22;80511;-61
2022/10/02 08:09:33;;;;;;;7.97;2.38;;;23.60;53.40;;;;;;7674857;22;81591;-71
2022/10/02 08:12:35;;;;;;;5.20;2.33;;;23.40;53.20;;;;;;7678593;22;80333;-68
2022/10/02 08:15:37;;;;;;;4.80;1.98;;;23.40;52.50;;;;;;7676773;22;81102;-52
2022/10/02 08:18:37;;;;;;;3.35;2.00;;;23.40;52.90;;;;;;7680027;22;80351;-60
2022/10/02 08:21:38;;;;;;;3.67;1.95;;;23.50;52.90;;;;;;7678288;22;81524;-48
2022/10/02 08:24:38;;;;;;;5.10;1.90;;;23.50;53.20;;;;;;7668648;22;80371;-49
2022/10/02 08:27:39;;;;;;;7.18;2.72;;;23.60;53.20;;;;;;7658841;22;80435;-47
2022/10/02 08:30:39;;;;;;;14.30;2.03;;;23.70;53.40;;;;;;7657474;22;80468;-48
2022/10/02 08:33:40;;;;;;;5.45;1.90;;;23.80;53.80;;;;;;7656338;22;80289;-48
2022/10/02 08:36:41;;;;;;;5.00;1.95;;;23.90;53.50;;;;;;7658636;22;81507;-48
2022/10/02 08:39:43;;;;;;;4.35;2.30;;;23.90;53.10;;;;;;7642474;22;82447;-46
2022/10/02 08:42:44;;;;;;;4.82;1.90;;;23.90;53.20;;;;;;7654789;22;81523;-49
2022/10/02 08:45:45;;;;;;;4.10;1.75;;;23.90;52.70;;;;;;7665721;22;80301;-48
2022/10/02 08:48:48;;;;;;;4.95;1.70;;;24.00;52.60;;;;;;7669885;22;81046;-48
2022/10/02 08:51:49;;;;;;;3.05;1.80;;;24.00;52.80;;;;;;7668738;22;80622;-52
2022/10/02 08:54:49;;;;;;;4.78;1.45;;;23.80;52.10;;;;;;7681544;22;81453;-49
2022/10/02 08:57:51;;;;;;;9.15;2.00;;;23.80;52.30;;;;;;7680259;22;81577;-48
2022/10/02 09:00:54;;;;;;;9.15;2.08;;;23.80;52.50;;;;;;7680227;22;80296;-48
2022/10/02 09:03:54;;;;;;;6.97;1.95;;;23.90;52.80;;;;;;7668695;22;80569;-53
2022/10/02 09:06:55;;;;;;;3.83;2.00;;;23.90;53.20;;;;;;7668023;22;81225;-49
2022/10/02 09:09:57;;;;;;;5.43;2.20;;;24.00;53.60;;;;;;7672158;22;80363;-53
2022/10/02 09:12:58;;;;;;;3.50;2.03;;;24.00;53.80;;;;;;7673262;22;80160;-51
2022/10/02 09:15:58;;;;;;;5.28;1.90;;;24.00;54.00;;;;;;7673361;22;80419;-50
2022/10/02 09:18:59;;;;;;;4.10;2.05;;;24.00;54.20;;;;;;7669946;22;80442;-53
2022/10/02 09:21:59;;;;;;;2.40;1.75;;;24.10;54.30;;;;;;7676123;22;80149;-54
2022/10/02 09:25:00;;;;;;;6.20;1.98;;;24.20;54.30;;;;;;7679715;22;80528;-50
2022/10/02 09:28:03;;;;;;;4.25;1.70;;;24.20;54.60;;;;;;7675282;22;81429;-48
2022/10/02 09:31:04;;;;;;;4.63;2.08;;;24.20;55.40;;;;;;7653042;22;80931;-58
2022/10/02 09:34:05;;;;;;;2.42;1.40;;;24.20;56.00;;;;;;7676901;22;80701;-59
2022/10/02 09:37:06;;;;;;;4.82;2.20;;;24.20;56.80;;;;;;7679232;22;80736;-53
2022/10/02 09:40:07;;;;;;;3.70;2.47;;;24.20;57.30;;;;;;7680497;22;82660;-52
2022/10/02 09:43:08;;;;;;;5.18;1.98;;;24.30;59.40;;;;;;7683205;22;80273;-52
2022/10/02 09:46:09;;;;;;;3.20;1.75;;;24.20;58.50;;;;;;7677952;22;80600;-50
2022/10/02 09:49:10;;;;;;;5.22;1.92;;;24.10;56.50;;;;;;7681399;22;79977;-52
2022/10/02 09:52:10;;;;;;;3.42;1.90;;;24.10;55.90;;;;;;7653848;22;83097;-51
2022/10/02 09:55:11;;;;;;;3.85;1.95;;;24.10;55.40;;;;;;7650165;22;81465;-51
2022/10/02 09:58:11;;;;;;;8.18;2.15;;;24.10;55.10;;;;;;7682714;22;80360;-49
2022/10/02 10:01:12;;;;;;;6.30;1.90;;;24.10;54.80;;;;;;7677389;22;81636;-51
2022/10/02 10:04:12;;;;;;;5.90;2.15;;;24.10;55.20;;;;;;7651243;22;81653;-51
2022/10/02 10:07:12;;;;;;;3.80;2.28;;;24.00;54.20;;;;;;7675927;22;80270;-60
2022/10/02 10:10:13;;;;;;;3.30;1.77;;;24.10;54.60;;;;;;7677791;22;80741;-61
2022/10/02 10:13:19;;;;;;;5.18;1.90;;;24.10;54.50;;;;;;7676081;22;80208;-61
2022/10/02 10:16:20;;;;;;;7.13;2.08;;;24.10;54.40;;;;;;7672882;22;80066;-61
2022/10/02 10:19:22;;;;;;;8.45;2.10;;;24.10;54.10;;;;;;7681255;22;81916;-61
2022/10/02 10:22:23;;;;;;;5.88;2.05;;;24.20;54.00;;;;;;7680316;22;81207;-60
2022/10/02 10:25:24;;;;;;;4.93;2.08;;;24.30;53.80;;;;;;7679320;22;80210;-50
2022/10/02 10:28:24;;;;;;;6.28;2.17;;;24.40;54.30;;;;;;7674347;22;80842;-53
2022/10/02 10:31:25;;;;;;;4.78;1.75;;;24.40;53.60;;;;;;7669704;22;81718;-51
2022/10/02 10:34:25;;;;;;;12.60;2.05;;;24.50;52.70;;;;;;7674451;22;81476;-50
2022/10/02 10:40:45;;;;;;;5.50;2.33;;;24.40;52.90;;;;;;7680179;22;81315;-53
2022/10/02 10:43:49;;;;;;;4.28;2.20;;;24.40;52.60;;;;;;7680854;22;80466;-50
2022/10/02 10:46:50;;;;;;;3.58;2.00;;;24.40;52.40;;;;;;7673220;22;79981;-50
2022/10/02 10:50:01;;;;;;;11.77;2.13;;;24.40;52.30;;;;;;7672078;22;80989;-47
2022/10/02 10:53:03;;;;;;;10.00;2.90;;;24.40;53.00;;;;;;7681091;22;80356;-51
2022/10/02 10:56:03;;;;;;;3.42;1.85;;;24.30;52.60;;;;;;7678603;22;79887;-51
2022/10/02 10:59:05;;;;;;;4.78;2.33;;;24.30;52.30;;;;;;7668516;22;80284;-49
2022/10/02 11:02:05;;;;;;;5.78;2.45;;;24.20;52.60;;;;;;7678747;22;80200;-59
2022/10/02 11:05:06;;;;;;;6.25;2.67;;;24.20;53.10;;;;;;7680044;22;80501;-52
2022/10/02 11:08:07;;;;;;;3.53;1.80;;;24.20;53.50;;;;;;7671445;22;80296;-50
2022/10/02 11:11:08;;;;;;;7.25;2.63;;;24.10;53.70;;;;;;7659743;22;82894;-52
2022/10/02 11:14:08;;;;;;;6.53;2.53;;;24.10;53.80;;;;;;7658677;22;80606;-52
2022/10/02 11:17:09;;;;;;;3.20;1.92;;;24.10;54.20;;;;;;7664399;22;80851;-52
2022/10/02 11:20:10;;;;;;;8.60;2.45;;;24.10;54.70;;;;;;7678429;22;80285;-60
2022/10/02 11:23:11;;;;;;;3.90;1.98;;;24.10;54.60;;;;;;7672322;22;81741;-58
2022/10/02 11:26:11;;;;;;;5.47;2.40;;;24.10;54.60;;;;;;7675383;22;80446;-59
2022/10/02 11:29:12;;;;;;;3.67;2.00;;;24.10;55.00;;;;;;7677756;22;87727;-59
2022/10/02 11:32:13;;;;;;;3.92;1.85;;;24.10;55.20;;;;;;7678624;22;83687;-59
2022/10/02 11:35:14;;;;;;;2.10;1.55;;;24.10;55.10;;;;;;7654054;22;80838;-58
2022/10/02 11:38:14;;;;;;;5.95;2.25;;;24.00;55.70;;;;;;7682971;22;80606;-58
2022/10/02 11:41:15;;;;;;;6.63;2.40;;;24.00;56.70;;;;;;7680442;22;80168;-55
2022/10/02 11:44:15;;;;;;;4.13;1.95;;;23.90;57.60;;;;;;7679922;22;81268;-55
2022/10/02 11:47:16;;;;;;;4.18;1.73;;;23.90;57.10;;;;;;7680809;22;80448;-57
2022/10/02 11:50:17;;;;;;;3.58;1.95;;;23.80;57.50;;;;;;7680116;22;80556;-59
2022/10/02 11:53:18;;;;;;;7.32;2.53;;;23.90;58.00;;;;;;7676411;22;80548;-58
2022/10/02 11:56:21;;;;;;;5.07;2.00;;;23.90;57.60;;;;;;7671944;22;80360;-58
2022/10/02 11:59:21;;;;;;;3.90;1.38;;;23.80;57.80;;;;;;7672345;22;81461;-61
2022/10/02 12:02:22;;;;;;;6.53;2.40;;;24.00;55.60;;;;;;7674349;22;81603;-60
2022/10/02 12:05:23;;;;;;;7.40;2.85;;;24.10;53.70;;;;;;7674322;22;80567;-61
2022/10/02 12:08:23;;;;;;;3.95;1.77;;;24.10;53.30;;;;;;7680566;22;81061;-60
2022/10/02 12:11:24;;;;;;;5.93;1.88;;;24.10;52.60;;;;;;7678227;22;79981;-64
2022/10/02 12:14:25;;;;;;;5.20;2.25;;;24.10;52.10;;;;;;7650652;22;81765;-48
2022/10/02 12:17:25;;;;;;;7.03;1.42;;;24.10;52.00;;;;;;7682162;22;81140;-47
2022/10/02 12:27:08;;;;;;;6.05;2.72;;;24.00;51.20;;;;;;7682090;22;79960;-58
2022/10/02 12:30:08;;;;;;;23.85;1.98;;;24.00;51.50;;;;;;7675882;22;80453;-49
2022/10/02 12:33:09;;;;;;;7.50;2.38;;;24.00;51.80;;;;;;7683320;22;80440;-48
2022/10/02 12:36:09;;;;;;;9.38;3.63;;;24.00;52.40;;;;;;7672675;22;81045;-47
2022/10/02 12:39:10;;;;;;;19.88;4.72;;;24.00;53.60;;;;;;7678876;22;80260;-47
2022/10/02 12:42:11;;;;;;;16.00;5.10;;;24.00;55.00;;;;;;7662939;22;80577;-48
2022/10/02 12:45:11;;;;;;;22.10;6.25;;;24.00;56.60;;;;;;7671589;22;80485;-53
2022/10/02 12:48:12;;;;;;;16.38;4.97;;;24.00;56.70;;;;;;7679716;22;87280;-48
2022/10/02 12:51:12;;;;;;;17.55;4.32;;;24.00;56.60;;;;;;7666183;22;80252;-48
2022/10/02 12:54:13;;;;;;;11.10;3.83;;;24.00;56.30;;;;;;7665740;22;80917;-49
2022/10/02 12:57:50;;;;;;;8.02;3.05;;;24.00;56.20;;;;;;7672843;22;81538;-48
2022/10/02 13:00:34;;;;;;;9.73;2.17;;;24.00;56.10;;;;;;7660132;22;80299;-49
2022/10/02 13:03:34;;;;;;;10.98;3.38;;;24.10;57.10;;;;;;7660927;22;82143;-49
2022/10/02 13:06:36;;;;;;;10.55;3.25;;;24.20;58.10;;;;;;7669142;22;80409;-51
2022/10/02 13:09:36;;;;;;;9.25;3.13;;;24.20;58.20;;;;;;7664082;22;80245;-53
2022/10/02 13:12:37;;;;;;;11.35;3.53;;;24.30;57.90;;;;;;7667619;22;79959;-50
2022/10/02 13:15:37;;;;;;;11.30;2.58;;;24.30;59.00;;;;;;7668271;22;80851;-48
2022/10/02 13:18:42;;;;;;;13.50;3.17;;;24.30;57.20;;;;;;7659397;22;80417;-48
2022/10/02 13:21:45;;;;;;;18.67;3.63;;;24.30;57.60;;;;;;7662285;22;80838;-48
2022/10/02 13:24:46;;;;;;;7.65;2.67;;;24.40;58.30;;;;;;7662351;22;81203;-49
2022/10/02 13:27:49;;;;;;;5.68;2.10;;;24.30;56.30;;;;;;7678073;22;80791;-62
2022/10/02 13:30:50;;;;;;;7.93;2.72;;;24.30;57.70;;;;;;7660708;22;80872;-62
2022/10/02 13:33:50;;;;;;;5.80;2.15;;;24.30;58.30;;;;;;7659991;22;80900;-62
2022/10/02 13:36:51;;;;;;;4.82;2.38;;;24.40;58.00;;;;;;7674859;22;80271;-61
2022/10/02 13:39:51;;;;;;;3.85;2.08;;;24.40;57.00;;;;;;7675918;22;80320;-60
2022/10/02 13:42:53;;;;;;;5.82;1.92;;;24.30;56.20;;;;;;7679652;22;80182;-66
2022/10/02 13:45:53;;;;;;;6.32;2.15;;;24.40;57.70;;;;;;7680651;22;80747;-60
2022/10/02 13:48:54;;;;;;;8.60;1.83;;;24.40;58.10;;;;;;7677623;22;80275;-54
2022/10/02 13:51:54;;;;;;;7.88;2.22;;;24.40;56.80;;;;;;7675707;22;80068;-48
2022/10/02 13:54:56;;;;;;;4.82;2.25;;;24.50;57.00;;;;;;7676424;22;81645;-45
2022/10/02 13:57:57;;;;;;;5.60;1.92;;;24.40;55.90;;;;;;7682471;22;80471;-49
2022/10/02 14:00:57;;;;;;;5.25;2.05;;;24.50;56.00;;;;;;7679402;22;80981;-45
2022/10/02 14:03:58;;;;;;;10.13;2.20;;;24.50;56.20;;;;;;7679691;22;80232;-46
2022/10/02 14:06:59;;;;;;;6.13;2.20;;;24.50;56.00;;;;;;7677876;22;82207;-50
2022/10/02 14:10:00;;;;;;;6.40;2.05;;;24.40;56.10;;;;;;7679019;22;81336;-47
2022/10/02 14:13:01;;;;;;;3.20;2.10;;;24.30;53.80;;;;;;7682561;22;81732;-52
2022/10/02 14:16:01;;;;;;;4.22;2.10;;;24.20;53.50;;;;;;7680126;22;80680;-48
2022/10/02 14:19:02;;;;;;;4.05;1.90;;;24.20;54.30;;;;;;7678717;22;80496;-49
2022/10/02 14:22:02;;;;;;;6.28;2.00;;;24.10;53.10;;;;;;7677929;22;81032;-52
2022/10/02 14:25:03;;;;;;;3.75;1.60;;;24.00;54.10;;;;;;7681010;22;80068;-48
2022/10/02 14:28:03;;;;;;;3.60;2.05;;;24.00;53.80;;;;;;7681195;22;80372;-47
2022/10/02 14:31:05;;;;;;;8.88;2.53;;;23.90;53.20;;;;;;7682379;22;80772;-46
2022/10/02 14:34:05;;;;;;;7.70;1.60;;;23.90;53.20;;;;;;7680541;22;80785;-47
2022/10/02 14:37:06;;;;;;;5.68;1.85;;;23.90;51.50;;;;;;7679651;22;81409;-49
2022/10/02 14:40:07;;;;;;;4.70;1.63;;;23.80;51.20;;;;;;7678706;22;80919;-57
2022/10/02 14:43:07;;;;;;;4.18;1.70;;;23.80;52.50;;;;;;7679157;22;81828;-58
2022/10/02 14:46:08;;;;;;;3.92;1.95;;;23.70;52.40;;;;;;7676753;22;81184;-55
2022/10/02 14:49:09;;;;;;;5.15;2.10;;;23.70;53.20;;;;;;7676068;22;79886;-55
2022/10/02 14:52:09;;;;;;;5.53;1.88;;;23.60;54.40;;;;;;7674575;22;80799;-57
2022/10/02 14:55:10;;;;;;;3.22;1.33;;;23.60;55.50;;;;;;7675802;22;80456;-55
2022/10/02 14:58:11;;;;;;;2.72;1.73;;;23.60;56.20;;;;;;7675013;22;81202;-56
2022/10/02 15:01:12;;;;;;;4.07;1.98;;;23.60;56.40;;;;;;7674341;22;80755;-56
2022/10/02 15:04:12;;;;;;;5.15;2.03;;;23.50;57.40;;;;;;7667027;22;80725;-55
2022/10/02 15:07:13;;;;;;;7.05;2.10;;;23.60;57.90;;;;;;7658603;22;80107;-55
2022/10/02 15:10:15;;;;;;;2.90;1.70;;;23.60;58.00;;;;;;7673190;22;80358;-56
2022/10/02 15:13:17;;;;;;;5.53;2.28;;;23.60;57.80;;;;;;7672446;22;81349;-58
2022/10/02 15:19:36;;;;;;;5.65;2.80;;;23.70;58.10;;;;;;7671434;22;80826;-57
2022/10/02 15:22:37;;;;;;;7.93;3.15;;;23.80;58.20;;;;;;7679921;22;80968;-57
2022/10/02 15:25:37;;;;;;;5.18;3.35;;;23.90;58.30;;;;;;7672751;22;80283;-57
2022/10/02 15:28:38;;;;;;;9.10;3.55;;;23.90;58.00;;;;;;7683529;22;80352;-53
2022/10/02 15:31:39;;;;;;;4.47;3.35;;;23.90;57.90;;;;;;7679046;22;80298;-57
2022/10/02 15:34:40;;;;;;;3.92;2.58;;;23.90;57.50;;;;;;7680827;22;81464;-64
2022/10/02 15:37:40;;;;;;;5.05;2.30;;;23.90;57.70;;;;;;7674512;22;81771;-62
2022/10/02 15:40:41;;;;;;;5.32;2.30;;;23.80;57.80;;;;;;7673665;22;80289;-61
2022/10/02 15:43:41;;;;;;;5.35;2.35;;;23.80;57.70;;;;;;7670992;22;80441;-64
2022/10/02 15:46:42;;;;;;;5.60;2.00;;;23.80;58.00;;;;;;7672744;22;80032;-60
2022/10/02 15:49:42;;;;;;;7.57;2.38;;;23.80;57.60;;;;;;7672502;22;80783;-71